Time;durP1;ratioP1;P1;durP2;ratioP2;P2;SDS_P1;SDS_P2;PMS_P1;PMS_P2;Temp;Humidity;BMP_temperature;BMP_pressure;BME280_temperature;BME280_humidity;BME280_pressure;Samples;Min_cycle;Max_cycle;Signal;HPM_P1;HPM_P2
2022/06/13 00:01:19;;;;;;;5.93;3.40;;;;;;;;;;5054022;28;20193;-67
2022/06/13 00:03:45;;;;;;;7.15;2.85;;;;;;;;;;5053570;28;20184;-66
2022/06/13 00:06:11;;;;;;;6.63;3.22;;;;;;;;;;5053665;28;20211;-65
2022/06/13 00:08:37;;;;;;;6.35;2.65;;;;;;;;;;5053669;28;20508;-65
2022/06/13 00:11:05;;;;;;;13.90;3.88;;;;;;;;;;5053843;28;20176;-67
2022/06/13 00:13:31;;;;;;;8.80;3.78;;;;;;;;;;5053628;28;20168;-66
2022/06/13 00:15:57;;;;;;;7.07;3.70;;;;;;;;;;5053611;28;20234;-67
2022/06/13 00:18:24;;;;;;;12.45;3.83;;;;;;;;;;5053493;28;20172;-67
2022/06/13 00:20:50;;;;;;;8.13;3.63;;;;;;;;;;5053726;28;20169;-65
2022/06/13 00:23:16;;;;;;;8.70;3.35;;;;;;;;;;5053426;28;20172;-66
2022/06/13 00:25:42;;;;;;;8.98;3.30;;;;;;;;;;5053743;28;20179;-66
2022/06/13 00:28:08;;;;;;;8.73;3.70;;;;;;;;;;5053230;28;20199;-66
2022/06/13 00:30:34;;;;;;;9.82;3.90;;;;;;;;;;5053443;28;20203;-67
2022/06/13 00:33:00;;;;;;;8.07;3.25;;;;;;;;;;5052775;28;20169;-67
2022/06/13 00:35:26;;;;;;;10.52;3.92;;;;;;;;;;5053251;28;20171;-67
2022/06/13 00:37:52;;;;;;;6.15;3.70;;;;;;;;;;5053375;28;20180;-66
2022/06/13 00:40:18;;;;;;;10.32;4.30;;;;;;;;;;5053285;28;20226;-67
2022/06/13 00:42:46;;;;;;;12.27;3.83;;;;;;;;;;5053396;28;20179;-67
2022/06/13 00:45:15;;;;;;;10.93;4.00;;;;;;;;;;5053081;28;20655;-67
2022/06/13 00:47:41;;;;;;;10.60;3.75;;;;;;;;;;5052946;28;20200;-67
2022/06/13 00:50:09;;;;;;;9.30;4.03;;;;;;;;;;5053347;28;20211;-67
2022/06/13 00:52:43;;;;;;;7.95;3.80;;;;;;;;;;5053080;28;20172;-67
2022/06/13 00:55:11;;;;;;;10.85;4.10;;;;;;;;;;5053437;28;20206;-67
2022/06/13 00:57:37;;;;;;;13.88;3.58;;;;;;;;;;5053221;28;20508;-67
2022/06/13 01:00:05;;;;;;;8.70;4.00;;;;;;;;;;5053288;28;20171;-67
2022/06/13 01:02:31;;;;;;;11.13;3.83;;;;;;;;;;5053155;28;20169;-67
2022/06/13 01:04:58;;;;;;;10.68;4.18;;;;;;;;;;5053182;28;20227;-67
2022/06/13 01:07:24;;;;;;;10.82;4.45;;;;;;;;;;5052810;28;20165;-67
2022/06/13 01:12:37;;;;;;;11.65;4.10;;;;;;;;;;5052926;28;20211;-67
2022/06/13 01:15:06;;;;;;;9.48;4.55;;;;;;;;;;5052888;28;20196;-67
2022/06/13 01:17:41;;;;;;;10.07;3.97;;;;;;;;;;5053065;28;20165;-67
2022/06/13 01:20:07;;;;;;;11.20;4.43;;;;;;;;;;5052824;28;20192;-67
2022/06/13 01:22:52;;;;;;;14.80;4.30;;;;;;;;;;5052703;28;20613;-67
2022/06/13 01:25:39;;;;;;;7.97;3.72;;;;;;;;;;5052822;28;20173;-67
2022/06/13 01:28:08;;;;;;;12.43;3.97;;;;;;;;;;5052935;28;20205;-67
2022/06/13 01:30:51;;;;;;;13.35;4.57;;;;;;;;;;5053002;28;20230;-67
2022/06/13 01:33:26;;;;;;;11.38;4.32;;;;;;;;;;5053028;28;20240;-67
2022/06/13 01:36:18;;;;;;;9.50;4.35;;;;;;;;;;5052708;28;20193;-67
2022/06/13 01:38:47;;;;;;;11.43;5.05;;;;;;;;;;5052923;28;20161;-67
2022/06/13 01:41:18;;;;;;;12.35;5.03;;;;;;;;;;5052685;28;20176;-67
2022/06/13 01:44:03;;;;;;;12.65;4.53;;;;;;;;;;5053724;28;20153;-67
2022/06/13 01:46:48;;;;;;;11.13;4.60;;;;;;;;;;5056136;28;20176;-67
2022/06/13 01:49:35;;;;;;;11.32;4.28;;;;;;;;;;5056119;28;20176;-67
2022/06/13 01:52:12;;;;;;;11.00;4.50;;;;;;;;;;5056312;28;20484;-67
2022/06/13 01:54:41;;;;;;;10.93;4.18;;;;;;;;;;5056131;28;20226;-67
2022/06/13 01:57:20;;;;;;;10.95;4.13;;;;;;;;;;5055953;28;20247;-67
2022/06/13 01:59:59;;;;;;;11.52;4.53;;;;;;;;;;5055956;28;20596;-67
2022/06/13 02:02:34;;;;;;;8.27;4.18;;;;;;;;;;5055885;28;20180;-67
2022/06/13 02:05:05;;;;;;;9.77;4.75;;;;;;;;;;5056026;28;20493;-66
2022/06/13 02:07:36;;;;;;;13.85;4.53;;;;;;;;;;5055816;28;20164;-66
2022/06/13 02:10:10;;;;;;;10.63;4.50;;;;;;;;;;5056210;28;20169;-66
2022/06/13 02:12:36;;;;;;;10.65;4.40;;;;;;;;;;5055877;28;20169;-66
2022/06/13 02:15:18;;;;;;;12.02;4.28;;;;;;;;;;5055924;28;20157;-67
2022/06/13 02:17:51;;;;;;;12.93;4.72;;;;;;;;;;5055954;28;20176;-66
2022/06/13 02:20:20;;;;;;;13.43;4.15;;;;;;;;;;5055724;28;20191;-66
2022/06/13 02:22:50;;;;;;;10.82;4.50;;;;;;;;;;5055531;28;20211;-66
2022/06/13 02:25:22;;;;;;;7.55;4.00;;;;;;;;;;5055634;28;20231;-67
2022/06/13 02:27:57;;;;;;;10.88;4.28;;;;;;;;;;5055533;28;20199;-66
2022/06/13 02:30:26;;;;;;;10.05;4.75;;;;;;;;;;5055745;28;20160;-66
2022/06/13 02:32:54;;;;;;;10.32;4.75;;;;;;;;;;5055285;28;20169;-66
2022/06/13 02:35:33;;;;;;;9.88;5.20;;;;;;;;;;5055570;28;20546;-66
2022/06/13 02:38:08;;;;;;;14.32;5.10;;;;;;;;;;5055331;28;20599;-67
2022/06/13 02:40:44;;;;;;;13.75;5.22;;;;;;;;;;5055518;28;20217;-67
2022/06/13 02:43:17;;;;;;;11.80;5.07;;;;;;;;;;5055364;28;20608;-67
2022/06/13 02:45:46;;;;;;;16.40;5.40;;;;;;;;;;5055368;28;20223;-67
2022/06/13 02:48:14;;;;;;;13.90;5.35;;;;;;;;;;5054811;28;20201;-67
2022/06/13 02:50:50;;;;;;;10.75;4.82;;;;;;;;;;5055094;28;20682;-67
2022/06/13 02:53:23;;;;;;;12.18;6.07;;;;;;;;;;5055180;28;20165;-67
2022/06/13 02:55:54;;;;;;;14.07;5.70;;;;;;;;;;5054545;28;20187;-67
2022/06/13 02:58:35;;;;;;;12.90;6.07;;;;;;;;;;5054864;28;20176;-67
2022/06/13 03:01:08;;;;;;;15.93;5.35;;;;;;;;;;5055162;28;20172;-67
2022/06/13 03:03:40;;;;;;;13.60;5.10;;;;;;;;;;5054744;28;20169;-67
2022/06/13 03:06:20;;;;;;;12.65;5.20;;;;;;;;;;5054859;28;20611;-67
2022/06/13 03:08:53;;;;;;;12.30;5.13;;;;;;;;;;5054881;28;20203;-67
2022/06/13 03:11:19;;;;;;;11.43;5.28;;;;;;;;;;5055118;28;20154;-66
2022/06/13 03:13:55;;;;;;;11.93;5.72;;;;;;;;;;5054733;28;20496;-67
2022/06/13 03:16:30;;;;;;;16.77;5.90;;;;;;;;;;5054629;28;20149;-67
2022/06/13 03:18:58;;;;;;;16.80;5.72;;;;;;;;;;5054462;28;20222;-67
2022/06/13 03:21:32;;;;;;;11.30;5.60;;;;;;;;;;5054362;28;20690;-67
2022/06/13 03:24:10;;;;;;;13.27;5.72;;;;;;;;;;5054257;28;20152;-67
2022/06/13 03:26:39;;;;;;;11.40;5.93;;;;;;;;;;5054430;28;20218;-66
2022/06/13 03:29:11;;;;;;;10.77;6.07;;;;;;;;;;5054118;28;20200;-67
2022/06/13 03:31:40;;;;;;;12.70;5.07;;;;;;;;;;5054209;28;20295;-66
2022/06/13 03:34:11;;;;;;;12.65;5.28;;;;;;;;;;5054434;28;20165;-66
2022/06/13 03:36:37;;;;;;;14.88;5.53;;;;;;;;;;5054131;28;20247;-67
2022/06/13 03:39:10;;;;;;;14.45;7.10;;;;;;;;;;5053972;28;20639;-67
2022/06/13 03:41:39;;;;;;;14.27;5.20;;;;;;;;;;5054468;28;20156;-67
2022/06/13 03:44:11;;;;;;;12.43;5.43;;;;;;;;;;5053926;28;20168;-67
2022/06/13 03:46:41;;;;;;;12.82;5.28;;;;;;;;;;5054248;28;20238;-67
2022/06/13 03:49:28;;;;;;;12.23;4.60;;;;;;;;;;5053789;28;20588;-67
2022/06/13 03:51:55;;;;;;;10.70;4.85;;;;;;;;;;5050122;28;20195;-67
2022/06/13 03:54:25;;;;;;;10.90;4.43;;;;;;;;;;5053742;28;20157;-67
2022/06/13 03:56:55;;;;;;;15.50;4.68;;;;;;;;;;5053782;28;20240;-67
2022/06/13 03:59:24;;;;;;;12.90;5.32;;;;;;;;;;5053675;28;20153;-67
2022/06/13 04:01:55;;;;;;;11.10;4.85;;;;;;;;;;5053749;28;20173;-66
2022/06/13 04:04:31;;;;;;;13.15;4.53;;;;;;;;;;5053634;28;20238;-67
2022/06/13 04:06:59;;;;;;;13.82;5.15;;;;;;;;;;5052931;28;20226;-67
2022/06/13 04:09:32;;;;;;;13.18;4.78;;;;;;;;;;5053673;28;20215;-67
2022/06/13 04:12:04;;;;;;;11.75;4.70;;;;;;;;;;5053924;28;20146;-67
2022/06/13 04:14:30;;;;;;;9.93;4.68;;;;;;;;;;5053481;28;20165;-67
2022/06/13 04:17:06;;;;;;;11.35;4.50;;;;;;;;;;5053754;28;20180;-67
2022/06/13 04:19:42;;;;;;;8.85;4.55;;;;;;;;;;5053347;28;20195;-67
2022/06/13 04:22:11;;;;;;;8.75;4.35;;;;;;;;;;5053465;28;20217;-67
2022/06/13 04:24:51;;;;;;;11.27;4.53;;;;;;;;;;5053459;28;20208;-67
2022/06/13 04:27:21;;;;;;;11.50;3.95;;;;;;;;;;5053374;28;20165;-67
2022/06/13 04:29:52;;;;;;;8.77;3.58;;;;;;;;;;5053175;28;20204;-67
2022/06/13 04:32:20;;;;;;;14.15;4.68;;;;;;;;;;5053530;28;20172;-67
2022/06/13 04:34:47;;;;;;;11.68;4.20;;;;;;;;;;5053279;28;20192;-67
2022/06/13 04:37:14;;;;;;;11.27;3.95;;;;;;;;;;5053295;28;20171;-66
2022/06/13 04:39:41;;;;;;;8.38;3.85;;;;;;;;;;5053224;28;20177;-67
2022/06/13 04:42:08;;;;;;;12.40;4.35;;;;;;;;;;5053235;28;20172;-67
2022/06/13 04:44:35;;;;;;;7.85;3.72;;;;;;;;;;5053118;28;20165;-67
2022/06/13 04:47:02;;;;;;;8.02;3.78;;;;;;;;;;5053083;28;20188;-67
2022/06/13 04:49:31;;;;;;;10.90;3.80;;;;;;;;;;5051872;28;20222;-67
2022/06/13 04:51:58;;;;;;;8.20;4.07;;;;;;;;;;5053427;28;20853;-67
2022/06/13 04:54:28;;;;;;;7.28;4.15;;;;;;;;;;5052992;28;20176;-67
2022/06/13 04:56:57;;;;;;;8.77;4.00;;;;;;;;;;5053270;28;20272;-67
2022/06/13 04:59:23;;;;;;;11.23;4.03;;;;;;;;;;5052863;28;20172;-67
2022/06/13 05:01:50;;;;;;;10.02;3.92;;;;;;;;;;5053021;28;20177;-67
2022/06/13 05:04:19;;;;;;;11.63;4.30;;;;;;;;;;5052885;28;20495;-67
2022/06/13 05:06:52;;;;;;;9.32;3.95;;;;;;;;;;5053186;28;20169;-67
2022/06/13 05:09:29;;;;;;;12.23;4.43;;;;;;;;;;5052759;28;20793;-67
2022/06/13 05:11:55;;;;;;;9.95;4.00;;;;;;;;;;5053419;28;20255;-67
2022/06/13 05:14:24;;;;;;;11.55;4.22;;;;;;;;;;5052697;28;20545;-67
2022/06/13 05:16:49;;;;;;;13.18;4.47;;;;;;;;;;5053062;28;20204;-67
2022/06/13 05:19:34;;;;;;;8.23;3.97;;;;;;;;;;5056752;28;20643;-68
2022/06/13 05:22:12;;;;;;;11.82;4.00;;;;;;;;;;5056856;28;20165;-68
2022/06/13 05:24:57;;;;;;;12.98;4.50;;;;;;;;;;5056438;28;20167;-68
2022/06/13 05:27:23;;;;;;;12.98;4.18;;;;;;;;;;5056674;28;20187;-68
2022/06/13 05:29:49;;;;;;;12.05;4.43;;;;;;;;;;5056366;28;20250;-68
2022/06/13 05:32:15;;;;;;;11.88;4.65;;;;;;;;;;5056382;28;20165;-67
2022/06/13 05:34:43;;;;;;;11.93;4.00;;;;;;;;;;5056590;28;20176;-67
2022/06/13 05:37:10;;;;;;;13.88;4.00;;;;;;;;;;5056545;28;20173;-67
2022/06/13 05:39:36;;;;;;;9.45;4.40;;;;;;;;;;5056213;28;20280;-67
2022/06/13 05:42:02;;;;;;;9.07;4.35;;;;;;;;;;5062220;23;20216;-67
2022/06/13 05:44:28;;;;;;;12.65;4.43;;;;;;;;;;5056227;28;20165;-67
2022/06/13 05:46:54;;;;;;;10.45;4.10;;;;;;;;;;5056079;28;20562;-68
2022/06/13 05:49:20;;;;;;;9.77;3.97;;;;;;;;;;5055913;28;20216;-67
2022/06/13 05:51:46;;;;;;;12.25;4.15;;;;;;;;;;5056073;28;20244;-67
2022/06/13 05:54:13;;;;;;;9.15;3.70;;;;;;;;;;5055873;28;20192;-67
2022/06/13 05:56:39;;;;;;;8.77;3.90;;;;;;;;;;5055604;28;20533;-67
2022/06/13 05:59:05;;;;;;;9.40;3.75;;;;;;;;;;5055786;28;20177;-68
2022/06/13 06:01:35;;;;;;;9.60;4.10;;;;;;;;;;5055904;28;20229;-68
2022/06/13 06:04:02;;;;;;;12.35;4.00;;;;;;;;;;5055757;28;20498;-67
2022/06/13 06:06:28;;;;;;;8.60;3.92;;;;;;;;;;5055940;28;20592;-67
2022/06/13 06:08:54;;;;;;;10.38;3.80;;;;;;;;;;5055530;28;20569;-68
2022/06/13 06:11:21;;;;;;;13.77;4.60;;;;;;;;;;5055605;28;20161;-68
2022/06/13 06:13:47;;;;;;;9.15;3.80;;;;;;;;;;5055878;28;20267;-68
2022/06/13 06:16:14;;;;;;;9.70;4.20;;;;;;;;;;5055642;28;20183;-68
2022/06/13 06:18:40;;;;;;;10.23;4.15;;;;;;;;;;5055658;28;20238;-68
2022/06/13 06:21:06;;;;;;;10.32;4.00;;;;;;;;;;5055429;28;20607;-68
2022/06/13 06:23:32;;;;;;;8.60;3.53;;;;;;;;;;5055482;28;20171;-68
2022/06/13 06:25:58;;;;;;;9.30;3.95;;;;;;;;;;5055338;28;20542;-68
2022/06/13 06:28:25;;;;;;;11.05;3.83;;;;;;;;;;5055314;28;20279;-68
2022/06/13 06:30:52;;;;;;;11.38;3.90;;;;;;;;;;5054570;28;20669;-68
2022/06/13 06:33:18;;;;;;;14.35;4.75;;;;;;;;;;5055272;28;20192;-68
2022/06/13 06:35:44;;;;;;;9.23;4.05;;;;;;;;;;5055174;28;20262;-68
2022/06/13 06:38:10;;;;;;;7.22;3.20;;;;;;;;;;5055450;28;20172;-68
2022/06/13 06:40:37;;;;;;;6.72;3.25;;;;;;;;;;5054966;28;20188;-69
2022/06/13 06:43:03;;;;;;;6.63;2.30;;;;;;;;;;5055113;28;20751;-68
2022/06/13 06:45:29;;;;;;;4.97;2.30;;;;;;;;;;5055047;28;20616;-68
2022/06/13 06:47:56;;;;;;;4.47;2.47;;;;;;;;;;5054894;28;20554;-68
2022/06/13 06:50:23;;;;;;;6.65;2.25;;;;;;;;;;5054899;28;20201;-67
2022/06/13 06:52:49;;;;;;;5.32;2.33;;;;;;;;;;5054987;28;20161;-67
2022/06/13 07:00:30;;;;;;;7.15;2.35;;;;;;;;;;5061259;23;20239;-67
2022/06/13 07:02:57;;;;;;;6.07;2.60;;;;;;;;;;5054992;28;20364;-67
2022/06/13 07:05:23;;;;;;;4.93;2.25;;;;;;;;;;5060779;23;20266;-67
2022/06/13 07:07:49;;;;;;;5.50;2.67;;;;;;;;;;5054702;28;20161;-67
2022/06/13 07:10:16;;;;;;;5.93;2.42;;;;;;;;;;5055069;28;20161;-67
2022/06/13 07:12:42;;;;;;;5.50;2.60;;;;;;;;;;5054497;28;20240;-67
2022/06/13 07:15:09;;;;;;;6.40;2.67;;;;;;;;;;5054707;28;20196;-67
2022/06/13 07:17:35;;;;;;;5.70;2.58;;;;;;;;;;5054277;28;20172;-68
2022/06/13 07:20:01;;;;;;;4.50;2.67;;;;;;;;;;5066187;23;20217;-68
2022/06/13 07:22:27;;;;;;;4.57;2.72;;;;;;;;;;5065945;23;20213;-68
2022/06/13 07:24:53;;;;;;;5.68;3.00;;;;;;;;;;5060327;23;20223;-68
2022/06/13 07:27:20;;;;;;;6.70;2.83;;;;;;;;;;5060205;23;20271;-68
2022/06/13 07:29:46;;;;;;;5.47;2.70;;;;;;;;;;5060100;23;20220;-68
2022/06/13 07:32:14;;;;;;;3.78;2.30;;;;;;;;;;5090863;22;20379;-68
2022/06/13 07:34:41;;;;;;;6.78;2.63;;;;;;;;;;5066282;23;20233;-67
2022/06/13 07:37:07;;;;;;;6.38;2.10;;;;;;;;;;5069749;23;20216;-67
2022/06/13 07:39:33;;;;;;;6.13;1.90;;;;;;;;;;5063943;23;20224;-67
2022/06/13 07:41:59;;;;;;;5.15;2.20;;;;;;;;;;5069191;22;20212;-69
2022/06/13 07:44:31;;;;;;;4.43;1.60;;;;;;;;;;5064114;23;20211;-68
2022/06/13 07:46:57;;;;;;;4.00;1.73;;;;;;;;;;5054276;28;20670;-69
2022/06/13 07:49:23;;;;;;;2.60;1.70;;;;;;;;;;5054087;28;20196;-69
2022/06/13 07:51:49;;;;;;;7.35;1.90;;;;;;;;;;5053754;28;20168;-69
2022/06/13 07:54:15;;;;;;;3.75;1.75;;;;;;;;;;5066296;23;20216;-69
2022/06/13 07:56:43;;;;;;;5.85;2.00;;;;;;;;;;5056316;28;20589;-69
2022/06/13 07:59:12;;;;;;;4.30;1.67;;;;;;;;;;5059757;23;20663;-69
2022/06/13 08:01:38;;;;;;;5.63;2.10;;;;;;;;;;5053624;28;20169;-68
2022/06/13 08:04:04;;;;;;;3.95;2.20;;;;;;;;;;5059487;23;20238;-69
2022/06/13 08:06:30;;;;;;;4.45;2.10;;;;;;;;;;5053495;28;20168;-68
2022/06/13 08:08:56;;;;;;;6.68;2.60;;;;;;;;;;5059942;22;20222;-68
2022/06/13 08:11:23;;;;;;;3.88;2.25;;;;;;;;;;5060845;23;20210;31
2022/06/13 08:13:49;;;;;;;5.45;2.22;;;;;;;;;;5012170;28;20517;-69
2022/06/13 08:16:15;;;;;;;6.88;2.45;;;;;;;;;;5013767;28;20162;-68
2022/06/13 08:18:42;;;;;;;6.50;2.08;;;;;;;;;;5013906;28;20174;-69
2022/06/13 08:21:08;;;;;;;3.88;2.20;;;;;;;;;;5040567;23;20216;-69
2022/06/13 08:23:34;;;;;;;5.90;2.30;;;;;;;;;;5059312;23;20213;-68
2022/06/13 08:26:00;;;;;;;6.07;2.25;;;;;;;;;;5053223;28;20593;-68
2022/06/13 08:28:27;;;;;;;5.15;2.42;;;;;;;;;;5053085;28;20220;-69
2022/06/13 08:30:56;;;;;;;8.27;3.25;;;;;;;;;;5053191;28;20192;-69
2022/06/13 08:33:23;;;;;;;11.23;2.60;;;;;;;;;;5053511;28;20157;-68
2022/06/13 08:35:49;;;;;;;9.13;2.20;;;;;;;;;;5065027;23;20220;-68
2022/06/13 08:38:15;;;;;;;7.28;2.85;;;;;;;;;;5053219;28;20161;-68
2022/06/13 08:41:00;;;;;;;4.93;2.20;;;;;;;;;;5053181;28;20161;-70
2022/06/13 08:43:44;;;;;;;8.88;2.42;;;;;;;;;;5058993;23;20223;-68
2022/06/13 08:46:19;;;;;;;9.48;2.58;;;;;;;;;;5053137;28;20168;-69
2022/06/13 08:48:45;;;;;;;6.57;1.80;;;;;;;;;;5052857;28;20200;-69
2022/06/13 08:51:13;;;;;;;5.03;2.15;;;;;;;;;;5052658;28;20165;-69
2022/06/13 08:53:44;;;;;;;6.25;2.13;;;;;;;;;;5055625;28;20298;-69
2022/06/13 08:56:12;;;;;;;7.55;2.03;;;;;;;;;;5057025;28;20585;-69
2022/06/13 08:58:58;;;;;;;9.95;2.50;;;;;;;;;;5055796;28;20500;-69
2022/06/13 09:01:28;;;;;;;7.70;2.33;;;;;;;;;;5056990;28;20221;-70
2022/06/13 09:04:00;;;;;;;8.75;2.17;;;;;;;;;;5062966;23;20556;-69
2022/06/13 09:06:49;;;;;;;5.45;2.40;;;;;;;;;;5062639;23;20208;-69
2022/06/13 09:09:19;;;;;;;7.75;2.53;;;;;;;;;;5046703;28;20701;-70
2022/06/13 09:11:49;;;;;;;6.85;2.65;;;;;;;;;;5056804;28;20209;-70
2022/06/13 09:14:14;;;;;;;9.25;2.53;;;;;;;;;;5056831;28;20306;-70
2022/06/13 09:16:43;;;;;;;5.30;2.20;;;;;;;;;;5056887;28;20251;-70
2022/06/13 09:19:21;;;;;;;7.10;2.30;;;;;;;;;;5056503;28;20167;-70
2022/06/13 09:21:47;;;;;;;6.72;2.30;;;;;;;;;;5440059;22;20218;31
2022/06/13 09:26:41;;;;;;;5.38;2.28;;;;;;;;;;6260451;22;20549;31
2022/06/13 09:29:06;;;;;;;7.25;2.58;;;;;;;;;;6258468;22;20220;31
2022/06/13 09:36:01;;;;;;;4.43;1.80;;;;;;;;;;6332731;22;20195;31
2022/06/13 09:42:40;;;;;;;5.38;1.70;;;;;;;;;;6137247;23;20203;31
2022/06/13 09:49:16;;;;;;;3.85;1.60;;;;;;;;;;6318690;22;21576;31
2022/06/13 09:53:26;;;;;;;4.55;1.58;;;;;;;;;;6323105;22;21693;31
2022/06/13 10:02:41;;;;;;;3.92;1.52;;;;;;;;;;6227400;22;20201;31
2022/06/13 10:07:16;;;;;;;3.20;1.33;;;;;;;;;;6177103;22;20581;31
2022/06/13 10:14:44;;;;;;;7.93;1.48;;;;;;;;;;6291382;22;20536;31
2022/06/13 10:23:53;;;;;;;2.45;1.17;;;;;;;;;;6318428;22;20195;31
2022/06/13 10:27:57;;;;;;;2.35;0.95;;;;;;;;;;6166695;22;20518;-64
2022/06/13 10:37:34;;;;;;;4.07;0.98;;;;;;;;;;6288925;22;20192;31
2022/06/13 10:41:43;;;;;;;3.75;1.27;;;;;;;;;;6247459;22;20528;-69
2022/06/13 10:44:11;;;;;;;1.48;0.90;;;;;;;;;;6254935;23;20162;-70
2022/06/13 10:46:38;;;;;;;2.22;0.93;;;;;;;;;;6248433;22;20195;-68
2022/06/13 10:49:20;;;;;;;3.97;1.50;;;;;;;;;;6242737;22;20249;-70
2022/06/13 10:51:46;;;;;;;3.78;0.90;;;;;;;;;;6252775;22;20650;-69
2022/06/13 10:54:21;;;;;;;2.85;0.88;;;;;;;;;;6243030;22;20214;-69
2022/06/13 10:56:50;;;;;;;2.65;1.10;;;;;;;;;;6247130;22;20206;-68
2022/06/13 10:59:23;;;;;;;1.70;0.70;;;;;;;;;;6246558;22;20754;-70
2022/06/13 11:02:00;;;;;;;1.70;1.00;;;;;;;;;;6244642;22;20191;-68
2022/06/13 11:04:36;;;;;;;0.77;0.68;;;;;;;;;;6253919;22;20147;-68
2022/06/13 11:07:12;;;;;;;3.13;0.90;;;;;;;;;;6220730;22;20206;-69
2022/06/13 11:09:46;;;;;;;2.72;1.00;;;;;;;;;;6254810;23;20222;-68
2022/06/13 11:12:28;;;;;;;1.42;0.90;;;;;;;;;;6254935;23;20142;-68
2022/06/13 11:23:27;;;;;;;0.73;0.65;;;;;;;;;;6254886;23;20142;-69
2022/06/13 11:25:58;;;;;;;1.85;0.80;;;;;;;;;;6252397;22;20187;-69
2022/06/13 11:28:27;;;;;;;1.50;0.70;;;;;;;;;;6254703;23;20147;-69
2022/06/13 11:31:03;;;;;;;2.00;0.90;;;;;;;;;;6254824;23;20582;-69
2022/06/13 11:33:31;;;;;;;1.35;0.70;;;;;;;;;;6254688;23;20155;-69
2022/06/13 11:36:01;;;;;;;4.25;0.90;;;;;;;;;;6255107;23;20214;-70
2022/06/13 11:38:32;;;;;;;2.85;0.80;;;;;;;;;;6254682;23;20128;-70
2022/06/13 11:41:03;;;;;;;2.67;0.82;;;;;;;;;;6252161;22;20198;-70
2022/06/13 11:45:56;;;;;;;1.65;0.82;;;;;;;;;;6249943;22;20182;-70
2022/06/13 11:48:22;;;;;;;2.03;0.70;;;;;;;;;;6227797;23;20154;-70
2022/06/13 11:50:53;;;;;;;1.02;0.70;;;;;;;;;;6254273;23;20214;-70
2022/06/13 11:53:38;;;;;;;1.60;0.70;;;;;;;;;;6221309;23;20197;-70
2022/06/13 11:56:22;;;;;;;0.93;0.57;;;;;;;;;;6248083;23;20136;-71
2022/06/13 11:58:49;;;;;;;0.77;0.70;;;;;;;;;;6247724;23;20282;-71
2022/06/13 12:01:19;;;;;;;0.85;0.32;;;;;;;;;;6247536;23;20183;-70
2022/06/13 12:03:59;;;;;;;1.15;0.38;;;;;;;;;;6247926;23;20215;-70
2022/06/13 12:06:25;;;;;;;1.27;0.45;;;;;;;;;;6247716;23;20165;-70
2022/06/13 12:09:01;;;;;;;1.75;0.75;;;;;;;;;;6247444;23;20591;-70
2022/06/13 12:11:27;;;;;;;0.88;0.45;;;;;;;;;;6247550;23;20124;-70
2022/06/13 12:13:56;;;;;;;1.38;0.40;;;;;;;;;;6247392;23;20190;-69
2022/06/13 12:16:32;;;;;;;0.65;0.40;;;;;;;;;;6247395;23;20623;-70
2022/06/13 12:19:23;;;;;;;0.50;0.40;;;;;;;;;;6247744;23;20143;-69
2022/06/13 12:21:53;;;;;;;0.65;0.40;;;;;;;;;;6247882;23;20139;-68
2022/06/13 12:24:18;;;;;;;1.35;0.55;;;;;;;;;;6247390;23;20140;-69
2022/06/13 12:26:57;;;;;;;0.88;0.50;;;;;;;;;;6247344;23;20147;-69
2022/06/13 12:29:41;;;;;;;0.90;0.50;;;;;;;;;;6247542;23;20274;-68
2022/06/13 12:32:14;;;;;;;1.75;0.50;;;;;;;;;;6247376;23;20165;-69
2022/06/13 12:34:45;;;;;;;2.75;0.50;;;;;;;;;;6247676;23;20129;-68
2022/06/13 12:37:16;;;;;;;2.83;0.80;;;;;;;;;;6247748;23;20480;-68
2022/06/13 12:39:47;;;;;;;1.60;0.60;;;;;;;;;;6246915;23;20171;-68
2022/06/13 12:42:32;;;;;;;0.63;0.40;;;;;;;;;;6247592;23;20159;-69
2022/06/13 12:45:31;;;;;;;1.50;0.60;;;;;;;;;;6247147;23;20233;-68
2022/06/13 12:47:57;;;;;;;2.22;0.60;;;;;;;;;;6181327;23;20210;-70
2022/06/13 12:50:35;;;;;;;0.55;0.40;;;;;;;;;;6246907;23;20152;-70
2022/06/13 12:53:23;;;;;;;1.17;0.52;;;;;;;;;;6247562;23;20450;-71
2022/06/13 12:55:55;;;;;;;1.38;0.60;;;;;;;;;;6247431;23;20425;-69
2022/06/13 12:58:36;;;;;;;0.57;0.50;;;;;;;;;;6246786;23;20548;-68
2022/06/13 13:01:15;;;;;;;1.23;0.50;;;;;;;;;;6246932;23;20247;-68
2022/06/13 13:03:41;;;;;;;1.60;0.68;;;;;;;;;;6246729;23;20205;-68
2022/06/13 13:06:07;;;;;;;1.25;0.57;;;;;;;;;;6246954;23;20135;-68
2022/06/13 13:08:33;;;;;;;1.35;0.60;;;;;;;;;;6220690;23;20174;-68
2022/06/13 13:11:11;;;;;;;1.33;0.65;;;;;;;;;;6244377;22;20540;-68
2022/06/13 13:13:49;;;;;;;1.13;0.65;;;;;;;;;;6247012;23;20217;-69
2022/06/13 13:16:17;;;;;;;2.45;0.90;;;;;;;;;;6246848;23;20277;-69
2022/06/13 13:18:48;;;;;;;2.10;0.60;;;;;;;;;;6246826;23;20139;-69
2022/06/13 13:21:21;;;;;;;2.75;0.80;;;;;;;;;;6247064;23;20164;-69
2022/06/13 13:23:59;;;;;;;1.52;0.60;;;;;;;;;;6246819;23;20205;-69
2022/06/13 13:26:34;;;;;;;3.15;0.77;;;;;;;;;;6246867;23;20144;-69
2022/06/13 13:29:11;;;;;;;2.60;0.60;;;;;;;;;;6247150;23;20155;-70
2022/06/13 13:31:46;;;;;;;2.25;0.68;;;;;;;;;;6246834;23;20132;-69
2022/06/13 13:34:24;;;;;;;2.30;0.68;;;;;;;;;;6247204;23;20171;-69
2022/06/13 13:36:58;;;;;;;2.08;0.70;;;;;;;;;;6246679;23;20135;-68
2022/06/13 13:39:50;;;;;;;1.58;0.77;;;;;;;;;;6246649;23;20128;-68
2022/06/13 13:42:26;;;;;;;1.40;0.70;;;;;;;;;;6201402;23;20163;-67
2022/06/13 13:45:04;;;;;;;1.67;0.63;;;;;;;;;;6246526;23;20142;-68
2022/06/13 13:47:34;;;;;;;3.53;0.70;;;;;;;;;;6246571;23;20140;-67
2022/06/13 13:50:09;;;;;;;1.55;0.50;;;;;;;;;;6246762;23;20494;-68
2022/06/13 13:52:37;;;;;;;3.42;0.60;;;;;;;;;;6246629;23;20230;-68
2022/06/13 13:55:12;;;;;;;0.80;0.60;;;;;;;;;;6246518;23;20144;-67
2022/06/13 13:57:59;;;;;;;2.88;0.93;;;;;;;;;;6246692;23;20138;-68
2022/06/13 14:00:28;;;;;;;1.75;0.60;;;;;;;;;;6246653;23;20599;-68
2022/06/13 14:02:54;;;;;;;2.67;0.90;;;;;;;;;;6246685;23;20160;-68
2022/06/13 14:05:38;;;;;;;1.00;0.70;;;;;;;;;;6247201;23;20151;-68
2022/06/13 14:08:30;;;;;;;1.85;0.60;;;;;;;;;;6246705;23;20227;-68
2022/06/13 14:10:58;;;;;;;1.65;0.88;;;;;;;;;;6241005;23;20148;-68
2022/06/13 14:13:25;;;;;;;2.40;0.80;;;;;;;;;;6247324;23;20532;-68
2022/06/13 14:15:51;;;;;;;1.40;0.70;;;;;;;;;;6255209;23;20170;-68
2022/06/13 14:18:40;;;;;;;1.55;0.70;;;;;;;;;;6247555;23;20150;-68
2022/06/13 14:21:13;;;;;;;1.67;0.70;;;;;;;;;;6227873;23;20175;-68
2022/06/13 14:23:43;;;;;;;0.82;0.70;;;;;;;;;;6246173;23;20151;-68
2022/06/13 14:26:18;;;;;;;1.83;0.63;;;;;;;;;;6246761;23;20135;-68
2022/06/13 14:28:52;;;;;;;1.00;0.65;;;;;;;;;;6246441;23;20135;-68
2022/06/13 14:31:19;;;;;;;2.20;0.90;;;;;;;;;;6246240;23;20236;-69
2022/06/13 14:36:48;;;;;;;1.17;0.57;;;;;;;;;;6246742;23;20143;-69
2022/06/13 14:39:40;;;;;;;1.30;0.65;;;;;;;;;;6246244;23;20153;-69
2022/06/13 14:42:22;;;;;;;2.38;0.90;;;;;;;;;;6240837;23;20559;-69
2022/06/13 14:45:10;;;;;;;1.00;0.70;;;;;;;;;;6246115;23;20152;-69
2022/06/13 14:47:42;;;;;;;1.80;0.75;;;;;;;;;;6246258;23;20147;-69
2022/06/13 14:50:08;;;;;;;2.90;0.70;;;;;;;;;;6246283;23;20147;-68
2022/06/13 14:52:34;;;;;;;3.00;0.57;;;;;;;;;;6246477;23;20172;-68
2022/06/13 14:55:03;;;;;;;1.05;0.60;;;;;;;;;;6246227;23;20194;-68
2022/06/13 14:57:29;;;;;;;1.33;0.73;;;;;;;;;;6246002;23;20560;-69
2022/06/13 15:00:07;;;;;;;0.75;0.55;;;;;;;;;;6246238;23;20471;-69
2022/06/13 15:02:34;;;;;;;0.95;0.50;;;;;;;;;;6246723;23;20158;-69
2022/06/13 15:05:01;;;;;;;1.02;0.60;;;;;;;;;;6246162;23;20140;-69
2022/06/13 15:07:35;;;;;;;1.15;0.68;;;;;;;;;;6246438;23;20176;-69
2022/06/13 15:10:04;;;;;;;1.60;0.50;;;;;;;;;;6246487;23;20158;-69
2022/06/13 15:12:38;;;;;;;1.90;0.77;;;;;;;;;;6245773;23;20155;-69
2022/06/13 15:15:07;;;;;;;1.70;0.60;;;;;;;;;;6246321;23;20128;-69
2022/06/13 15:17:34;;;;;;;1.55;0.52;;;;;;;;;;6245885;23;20172;-69
2022/06/13 15:20:01;;;;;;;1.77;0.60;;;;;;;;;;6246349;23;20527;-69
2022/06/13 15:22:30;;;;;;;0.50;0.50;;;;;;;;;;6245907;23;20144;-69
2022/06/13 15:24:57;;;;;;;0.63;0.60;;;;;;;;;;6245979;23;20223;-69
2022/06/13 15:27:23;;;;;;;1.33;0.50;;;;;;;;;;6247045;23;20199;-69
2022/06/13 15:29:59;;;;;;;3.38;0.90;;;;;;;;;;6247996;23;20163;-69
2022/06/13 15:32:24;;;;;;;0.90;0.50;;;;;;;;;;6247881;23;20154;-69
2022/06/13 15:34:54;;;;;;;1.50;0.85;;;;;;;;;;6248589;23;20140;-69
2022/06/13 15:37:20;;;;;;;1.50;0.60;;;;;;;;;;6248021;23;20139;-69
2022/06/13 15:39:47;;;;;;;1.73;0.80;;;;;;;;;;6247979;23;20167;-69
2022/06/13 15:42:15;;;;;;;1.02;0.50;;;;;;;;;;6248186;23;20595;-69
2022/06/13 15:44:42;;;;;;;1.38;0.60;;;;;;;;;;6221455;23;20163;-68
2022/06/13 15:47:08;;;;;;;1.52;0.80;;;;;;;;;;6248263;23;20428;-68
2022/06/13 15:49:41;;;;;;;2.38;0.63;;;;;;;;;;6247774;23;20146;-69
2022/06/13 15:52:15;;;;;;;2.08;0.70;;;;;;;;;;6247373;23;20170;-69
2022/06/13 15:54:50;;;;;;;1.75;0.60;;;;;;;;;;6247789;23;20150;-68
2022/06/13 15:57:18;;;;;;;1.05;0.70;;;;;;;;;;6248017;23;20153;-68
2022/06/13 15:59:47;;;;;;;0.80;0.70;;;;;;;;;;6247676;23;20517;-69
2022/06/13 16:02:13;;;;;;;1.15;0.57;;;;;;;;;;6247842;23;20144;-68
2022/06/13 16:04:39;;;;;;;1.08;0.60;;;;;;;;;;6247563;23;20140;-68
2022/06/13 16:07:05;;;;;;;1.55;0.60;;;;;;;;;;6248004;23;20174;-68
2022/06/13 16:09:32;;;;;;;1.88;0.60;;;;;;;;;;6247819;23;20147;-68
2022/06/13 16:12:04;;;;;;;1.83;0.50;;;;;;;;;;6247353;23;20390;-68